sensor_id;sensor_type;location;lat;lon;timestamp;pressure;altitude;pressure_sealevel;temperature;humidity
48563;BME280;34981;49.104;11.396;2023-05-02T00:01:15;99393.84;;;8.06;100.00
48563;BME280;34981;49.104;11.396;2023-05-02T00:03:42;99394.69;;;8.06;100.00
48563;BME280;34981;49.104;11.396;2023-05-02T00:06:11;99372.94;;;7.93;100.00
48563;BME280;34981;49.104;11.396;2023-05-02T00:08:38;99340.16;;;7.59;100.00
48563;BME280;34981;49.104;11.396;2023-05-02T00:11:06;99357.22;;;7.41;100.00
48563;BME280;34981;49.104;11.396;2023-05-02T00:13:33;99379.31;;;7.43;100.00
48563;BME280;34981;49.104;11.396;2023-05-02T00:16:00;99436.72;;;7.57;100.00
48563;BME280;34981;49.104;11.396;2023-05-02T00:18:27;99468.03;;;7.73;100.00
48563;BME280;34981;49.104;11.396;2023-05-02T00:20:54;99453.63;;;7.66;100.00
48563;BME280;34981;49.104;11.396;2023-05-02T00:23:22;99460.66;;;7.67;100.00
48563;BME280;34981;49.104;11.396;2023-05-02T00:25:50;99433.19;;;7.49;100.00
48563;BME280;34981;49.104;11.396;2023-05-02T00:28:17;99437.81;;;7.38;100.00
48563;BME280;34981;49.104;11.396;2023-05-02T00:30:44;99436.78;;;7.23;100.00
48563;BME280;34981;49.104;11.396;2023-05-02T00:33:13;99520.72;;;7.14;100.00
48563;BME280;34981;49.104;11.396;2023-05-02T00:35:41;99571.47;;;7.32;100.00
48563;BME280;34981;49.104;11.396;2023-05-02T00:38:09;99577.78;;;7.23;100.00
48563;BME280;34981;49.104;11.396;2023-05-02T00:43:10;99605.25;;;7.33;100.00
48563;BME280;34981;49.104;11.396;2023-05-02T00:45:38;99634.78;;;7.49;100.00
48563;BME280;34981;49.104;11.396;2023-05-02T00:48:09;99668.94;;;7.55;100.00
48563;BME280;34981;49.104;11.396;2023-05-02T00:50:38;99665.28;;;7.56;100.00
48563;BME280;34981;49.104;11.396;2023-05-02T00:53:06;99664.13;;;7.59;100.00
48563;BME280;34981;49.104;11.396;2023-05-02T00:55:34;99664.97;;;7.59;100.00
48563;BME280;34981;49.104;11.396;2023-05-02T00:58:08;99650.16;;;7.47;100.00
48563;BME280;34981;49.104;11.396;2023-05-02T01:03:16;99660.56;;;7.50;100.00
48563;BME280;34981;49.104;11.396;2023-05-02T01:05:48;99653.19;;;7.44;100.00
48563;BME280;34981;49.104;11.396;2023-05-02T01:08:19;99653.47;;;7.41;100.00
48563;BME280;34981;49.104;11.396;2023-05-02T01:10:54;99657.84;;;7.42;100.00
48563;BME280;34981;49.104;11.396;2023-05-02T01:13:27;99657.09;;;7.32;100.00
48563;BME280;34981;49.104;11.396;2023-05-02T01:15:55;99652.38;;;7.26;100.00
48563;BME280;34981;49.104;11.396;2023-05-02T01:18:25;99675.63;;;7.25;100.00
48563;BME280;34981;49.104;11.396;2023-05-02T01:20:55;99662.69;;;7.13;100.00
48563;BME280;34981;49.104;11.396;2023-05-02T01:23:30;99675.38;;;7.11;100.00
48563;BME280;34981;49.104;11.396;2023-05-02T01:28:46;99721.59;;;7.21;100.00
48563;BME280;34981;49.104;11.396;2023-05-02T01:31:14;99676.63;;;6.98;100.00
48563;BME280;34981;49.104;11.396;2023-05-02T01:33:42;99698.94;;;6.89;100.00
48563;BME280;34981;49.104;11.396;2023-05-02T01:36:10;99748.69;;;7.00;100.00
48563;BME280;34981;49.104;11.396;2023-05-02T01:38:39;99762.16;;;7.08;100.00
48563;BME280;34981;49.104;11.396;2023-05-02T01:41:09;99751.06;;;6.85;100.00
48563;BME280;34981;49.104;11.396;2023-05-02T01:43:36;99767.13;;;6.85;100.00
48563;BME280;34981;49.104;11.396;2023-05-02T01:46:06;99792.69;;;6.88;100.00
48563;BME280;34981;49.104;11.396;2023-05-02T01:48:35;99808.47;;;6.91;100.00
48563;BME280;34981;49.104;11.396;2023-05-02T01:51:02;99795.06;;;6.73;100.00
48563;BME280;34981;49.104;11.396;2023-05-02T01:53:31;99824.13;;;6.86;100.00
48563;BME280;34981;49.104;11.396;2023-05-02T01:56:00;99832.53;;;6.91;100.00
48563;BME280;34981;49.104;11.396;2023-05-02T01:58:28;99820.63;;;6.85;100.00
48563;BME280;34981;49.104;11.396;2023-05-02T02:00:57;99819.91;;;6.83;100.00
48563;BME280;34981;49.104;11.396;2023-05-02T02:03:26;99788.13;;;6.62;100.00
48563;BME280;34981;49.104;11.396;2023-05-02T02:05:55;99801.03;;;6.67;100.00
48563;BME280;34981;49.104;11.396;2023-05-02T02:08:23;99813.31;;;6.60;100.00
48563;BME280;34981;49.104;11.396;2023-05-02T02:10:53;99823.00;;;6.61;100.00
48563;BME280;34981;49.104;11.396;2023-05-02T02:13:27;99837.31;;;6.70;100.00
48563;BME280;34981;49.104;11.396;2023-05-02T02:15:58;99830.13;;;6.70;100.00
48563;BME280;34981;49.104;11.396;2023-05-02T02:18:25;99819.88;;;6.65;100.00
48563;BME280;34981;49.104;11.396;2023-05-02T02:20:53;99804.81;;;6.47;100.00
48563;BME280;34981;49.104;11.396;2023-05-02T02:23:22;99811.47;;;6.43;100.00
48563;BME280;34981;49.104;11.396;2023-05-02T02:25:50;99802.25;;;6.28;100.00
48563;BME280;34981;49.104;11.396;2023-05-02T02:28:18;99822.91;;;6.25;100.00
48563;BME280;34981;49.104;11.396;2023-05-02T02:30:45;99859.38;;;6.44;100.00
48563;BME280;34981;49.104;11.396;2023-05-02T02:33:12;99869.81;;;6.47;100.00
48563;BME280;34981;49.104;11.396;2023-05-02T02:35:41;99873.47;;;6.46;100.00
48563;BME280;34981;49.104;11.396;2023-05-02T02:46:07;99906.75;;;6.24;100.00
48563;BME280;34981;49.104;11.396;2023-05-02T02:57:15;99915.97;;;6.40;100.00
48563;BME280;34981;49.104;11.396;2023-05-02T02:59:46;99943.78;;;6.47;100.00
48563;BME280;34981;49.104;11.396;2023-05-02T03:02:16;99923.88;;;6.32;100.00
48563;BME280;34981;49.104;11.396;2023-05-02T03:04:44;99927.72;;;6.19;100.00
48563;BME280;34981;49.104;11.396;2023-05-02T03:07:12;99944.28;;;6.23;100.00
48563;BME280;34981;49.104;11.396;2023-05-02T03:09:44;99970.59;;;6.28;100.00
48563;BME280;34981;49.104;11.396;2023-05-02T03:12:16;99961.41;;;6.30;100.00
48563;BME280;34981;49.104;11.396;2023-05-02T03:14:44;99977.72;;;6.37;100.00
48563;BME280;34981;49.104;11.396;2023-05-02T03:17:11;99988.28;;;6.38;100.00
48563;BME280;34981;49.104;11.396;2023-05-02T03:19:38;99977.31;;;6.32;100.00
48563;BME280;34981;49.104;11.396;2023-05-02T03:22:05;99990.81;;;6.30;100.00
48563;BME280;34981;49.104;11.396;2023-05-02T03:24:34;99997.28;;;6.37;100.00
48563;BME280;34981;49.104;11.396;2023-05-02T03:27:02;99999.81;;;6.39;100.00
48563;BME280;34981;49.104;11.396;2023-05-02T03:29:36;100005.41;;;6.36;100.00
48563;BME280;34981;49.104;11.396;2023-05-02T03:32:04;100026.25;;;6.42;100.00
48563;BME280;34981;49.104;11.396;2023-05-02T03:34:32;100028.22;;;6.40;100.00
48563;BME280;34981;49.104;11.396;2023-05-02T03:37:00;100023.16;;;6.37;100.00
48563;BME280;34981;49.104;11.396;2023-05-02T03:39:28;100029.06;;;6.40;100.00
48563;BME280;34981;49.104;11.396;2023-05-02T03:41:55;100035.25;;;6.41;100.00
48563;BME280;34981;49.104;11.396;2023-05-02T03:44:23;100030.19;;;6.38;100.00
48563;BME280;34981;49.104;11.396;2023-05-02T03:46:51;100043.53;;;6.38;100.00
48563;BME280;34981;49.104;11.396;2023-05-02T03:49:19;100044.69;;;6.35;100.00
48563;BME280;34981;49.104;11.396;2023-05-02T03:51:48;100033.03;;;6.27;100.00
48563;BME280;34981;49.104;11.396;2023-05-02T03:54:21;100054.09;;;6.30;100.00
48563;BME280;34981;49.104;11.396;2023-05-02T03:56:48;100054.81;;;6.32;100.00
48563;BME280;34981;49.104;11.396;2023-05-02T03:59:24;100052.97;;;6.32;100.00
48563;BME280;34981;49.104;11.396;2023-05-02T04:01:51;100071.97;;;6.39;100.00
48563;BME280;34981;49.104;11.396;2023-05-02T04:04:24;100046.53;;;6.15;100.00
48563;BME280;34981;49.104;11.396;2023-05-02T04:06:53;100066.50;;;6.02;100.00
48563;BME280;34981;49.104;11.396;2023-05-02T04:09:21;100084.34;;;5.92;100.00
48563;BME280;34981;49.104;11.396;2023-05-02T04:11:56;100112.88;;;5.91;100.00
48563;BME280;34981;49.104;11.396;2023-05-02T04:14:23;100149.97;;;5.94;100.00
48563;BME280;34981;49.104;11.396;2023-05-02T04:16:52;100156.09;;;5.85;100.00
48563;BME280;34981;49.104;11.396;2023-05-02T04:19:28;100193.13;;;5.90;100.00
48563;BME280;34981;49.104;11.396;2023-05-02T04:21:55;100251.78;;;6.01;100.00
48563;BME280;34981;49.104;11.396;2023-05-02T04:24:22;100308.34;;;6.15;100.00
48563;BME280;34981;49.104;11.396;2023-05-02T04:26:49;100318.72;;;6.09;100.00
48563;BME280;34981;49.104;11.396;2023-05-02T04:29:16;100338.56;;;6.06;100.00
48563;BME280;34981;49.104;11.396;2023-05-02T04:31:43;100346.84;;;6.03;100.00
48563;BME280;34981;49.104;11.396;2023-05-02T04:34:12;100378.53;;;6.17;100.00
48563;BME280;34981;49.104;11.396;2023-05-02T04:36:46;100383.22;;;6.25;100.00
48563;BME280;34981;49.104;11.396;2023-05-02T04:39:18;100390.56;;;6.33;100.00
48563;BME280;34981;49.104;11.396;2023-05-02T04:41:55;100400.00;;;6.37;100.00
48563;BME280;34981;49.104;11.396;2023-05-02T04:44:25;100418.88;;;6.45;100.00
48563;BME280;34981;49.104;11.396;2023-05-02T04:46:53;100419.84;;;6.44;100.00
48563;BME280;34981;49.104;11.396;2023-05-02T04:49:20;100420.72;;;6.44;100.00
48563;BME280;34981;49.104;11.396;2023-05-02T04:51:48;100416.75;;;6.39;100.00
48563;BME280;34981;49.104;11.396;2023-05-02T04:54:15;100435.47;;;6.39;100.00
48563;BME280;34981;49.104;11.396;2023-05-02T04:56:43;100455.63;;;6.43;100.00
48563;BME280;34981;49.104;11.396;2023-05-02T04:59:11;100447.31;;;6.46;100.00
48563;BME280;34981;49.104;11.396;2023-05-02T05:01:38;100470.84;;;6.52;100.00
48563;BME280;34981;49.104;11.396;2023-05-02T05:04:07;100470.84;;;6.52;100.00
48563;BME280;34981;49.104;11.396;2023-05-02T05:06:35;100482.66;;;6.49;100.00
48563;BME280;34981;49.104;11.396;2023-05-02T05:09:03;100500.97;;;6.54;100.00
48563;BME280;34981;49.104;11.396;2023-05-02T05:11:32;100516.22;;;6.63;100.00
48563;BME280;34981;49.104;11.396;2023-05-02T05:14:00;100524.13;;;6.64;100.00
48563;BME280;34981;49.104;11.396;2023-05-02T05:16:31;100552.41;;;6.67;100.00
48563;BME280;34981;49.104;11.396;2023-05-02T05:18:59;100573.97;;;6.75;100.00
48563;BME280;34981;49.104;11.396;2023-05-02T05:21:26;100592.16;;;6.81;100.00
48563;BME280;34981;49.104;11.396;2023-05-02T05:23:55;100608.69;;;6.86;100.00
48563;BME280;34981;49.104;11.396;2023-05-02T05:26:25;100650.44;;;6.98;100.00
48563;BME280;34981;49.104;11.396;2023-05-02T05:28:53;100684.44;;;7.08;100.00
48563;BME280;34981;49.104;11.396;2023-05-02T05:31:22;100706.16;;;7.14;100.00
48563;BME280;34981;49.104;11.396;2023-05-02T05:33:53;100730.56;;;7.21;100.00
48563;BME280;34981;49.104;11.396;2023-05-02T05:36:22;100762.81;;;7.40;100.00
48563;BME280;34981;49.104;11.396;2023-05-02T05:38:49;100800.94;;;7.53;100.00
48563;BME280;34981;49.104;11.396;2023-05-02T05:41:18;100830.59;;;7.61;100.00
48563;BME280;34981;49.104;11.396;2023-05-02T05:43:49;100863.84;;;7.79;100.00
48563;BME280;34981;49.104;11.396;2023-05-02T05:46:16;100901.69;;;7.86;100.00
48563;BME280;34981;49.104;11.396;2023-05-02T05:48:43;100946.50;;;8.05;100.00
48563;BME280;34981;49.104;11.396;2023-05-02T05:51:10;100998.69;;;8.21;100.00
48563;BME280;34981;49.104;11.396;2023-05-02T05:53:37;101020.56;;;8.27;100.00
48563;BME280;34981;49.104;11.396;2023-05-02T05:56:10;101032.66;;;8.32;100.00
48563;BME280;34981;49.104;11.396;2023-05-02T05:58:41;101037.50;;;8.38;100.00
48563;BME280;34981;49.104;11.396;2023-05-02T06:01:11;101070.44;;;8.50;100.00
48563;BME280;34981;49.104;11.396;2023-05-02T06:03:39;101113.78;;;8.66;100.00
48563;BME280;34981;49.104;11.396;2023-05-02T06:06:07;101159.13;;;8.90;100.00
48563;BME280;34981;49.104;11.396;2023-05-02T06:08:34;101191.44;;;9.09;100.00
48563;BME280;34981;49.104;11.396;2023-05-02T06:11:01;101246.19;;;9.38;100.00
48563;BME280;34981;49.104;11.396;2023-05-02T06:13:28;101288.47;;;9.67;100.00
48563;BME280;34981;49.104;11.396;2023-05-02T06:15:59;101336.22;;;10.05;100.00
48563;BME280;34981;49.104;11.396;2023-05-02T06:18:26;101312.56;;;10.08;100.00
48563;BME280;34981;49.104;11.396;2023-05-02T06:20:53;101355.63;;;10.39;100.00
48563;BME280;34981;49.104;11.396;2023-05-02T06:23:20;101336.09;;;10.37;100.00
48563;BME280;34981;49.104;11.396;2023-05-02T06:25:47;101344.47;;;10.53;100.00
48563;BME280;34981;49.104;11.396;2023-05-02T06:28:14;101325.94;;;10.50;100.00
48563;BME280;34981;49.104;11.396;2023-05-02T06:30:41;101307.09;;;10.50;100.00
48563;BME280;34981;49.104;11.396;2023-05-02T06:33:08;101290.22;;;10.48;100.00
48563;BME280;34981;49.104;11.396;2023-05-02T06:35:35;101298.19;;;10.59;100.00
48563;BME280;34981;49.104;11.396;2023-05-02T06:38:03;101271.38;;;10.48;100.00
48563;BME280;34981;49.104;11.396;2023-05-02T06:40:30;101259.50;;;10.60;100.00
48563;BME280;34981;49.104;11.396;2023-05-02T06:42:57;101252.28;;;10.61;100.00
48563;BME280;34981;49.104;11.396;2023-05-02T06:45:24;101260.78;;;10.75;100.00
48563;BME280;34981;49.104;11.396;2023-05-02T06:47:51;101258.81;;;10.87;100.00
48563;BME280;34981;49.104;11.396;2023-05-02T06:50:18;101266.75;;;11.08;100.00
48563;BME280;34981;49.104;11.396;2023-05-02T06:52:45;101226.75;;;11.13;100.00
48563;BME280;34981;49.104;11.396;2023-05-02T06:55:12;101183.66;;;11.03;100.00
48563;BME280;34981;49.104;11.396;2023-05-02T06:57:40;101162.88;;;10.96;100.00
48563;BME280;34981;49.104;11.396;2023-05-02T07:00:07;101133.78;;;10.99;100.00
48563;BME280;34981;49.104;11.396;2023-05-02T07:02:34;101107.72;;;10.90;100.00
48563;BME280;34981;49.104;11.396;2023-05-02T07:05:01;101106.00;;;10.89;100.00
48563;BME280;34981;49.104;11.396;2023-05-02T07:07:29;101095.53;;;10.96;100.00
48563;BME280;34981;49.104;11.396;2023-05-02T07:09:56;101089.00;;;10.98;100.00
48563;BME280;34981;49.104;11.396;2023-05-02T07:12:24;101067.59;;;10.97;100.00
48563;BME280;34981;49.104;11.396;2023-05-02T07:14:51;101071.69;;;11.01;100.00
48563;BME280;34981;49.104;11.396;2023-05-02T07:17:18;101067.38;;;11.17;100.00
48563;BME280;34981;49.104;11.396;2023-05-02T07:19:45;101037.66;;;11.09;100.00
48563;BME280;34981;49.104;11.396;2023-05-02T07:22:12;101050.88;;;11.30;100.00
48563;BME280;34981;49.104;11.396;2023-05-02T07:24:40;101029.50;;;11.19;100.00
48563;BME280;34981;49.104;11.396;2023-05-02T07:27:11;101027.03;;;11.25;100.00
48563;BME280;34981;49.104;11.396;2023-05-02T07:29:38;101013.16;;;11.30;100.00
48563;BME280;34981;49.104;11.396;2023-05-02T07:32:05;100967.75;;;11.08;100.00
48563;BME280;34981;49.104;11.396;2023-05-02T07:34:32;100957.03;;;10.98;100.00
48563;BME280;34981;49.104;11.396;2023-05-02T07:36:59;100945.63;;;10.86;100.00
48563;BME280;34981;49.104;11.396;2023-05-02T07:39:26;100954.09;;;10.91;100.00
48563;BME280;34981;49.104;11.396;2023-05-02T07:41:53;100955.28;;;11.07;100.00
48563;BME280;34981;49.104;11.396;2023-05-02T07:44:21;100924.19;;;10.95;100.00
48563;BME280;34981;49.104;11.396;2023-05-02T07:46:48;100913.59;;;10.83;100.00
48563;BME280;34981;49.104;11.396;2023-05-02T07:49:15;100904.81;;;10.81;100.00
48563;BME280;34981;49.104;11.396;2023-05-02T07:51:42;100899.03;;;10.76;100.00
48563;BME280;34981;49.104;11.396;2023-05-02T07:54:18;100889.97;;;10.77;100.00
48563;BME280;34981;49.104;11.396;2023-05-02T07:56:45;100868.66;;;10.66;100.00
48563;BME280;34981;49.104;11.396;2023-05-02T07:59:13;100870.16;;;10.51;100.00
48563;BME280;34981;49.104;11.396;2023-05-02T08:01:40;100861.22;;;10.50;100.00
48563;BME280;34981;49.104;11.396;2023-05-02T08:04:07;100872.38;;;10.56;100.00
48563;BME280;34981;49.104;11.396;2023-05-02T08:06:37;100876.31;;;10.61;100.00
48563;BME280;34981;49.104;11.396;2023-05-02T08:09:04;100879.16;;;10.60;100.00
48563;BME280;34981;49.104;11.396;2023-05-02T08:11:31;100885.47;;;10.68;100.00
48563;BME280;34981;49.104;11.396;2023-05-02T08:13:58;100899.75;;;10.78;100.00
48563;BME280;34981;49.104;11.396;2023-05-02T08:16:25;100874.81;;;10.76;100.00
48563;BME280;34981;49.104;11.396;2023-05-02T08:18:52;100868.47;;;10.68;100.00
48563;BME280;34981;49.104;11.396;2023-05-02T08:21:19;100876.13;;;10.72;100.00
48563;BME280;34981;49.104;11.396;2023-05-02T08:23:46;100885.06;;;10.73;100.00
48563;BME280;34981;49.104;11.396;2023-05-02T08:26:14;100879.44;;;10.66;100.00
48563;BME280;34981;49.104;11.396;2023-05-02T08:28:41;100889.44;;;10.74;100.00
48563;BME280;34981;49.104;11.396;2023-05-02T08:31:09;100885.97;;;10.81;100.00
48563;BME280;34981;49.104;11.396;2023-05-02T08:33:36;100873.22;;;10.83;100.00
48563;BME280;34981;49.104;11.396;2023-05-02T08:36:16;100864.59;;;10.80;100.00
48563;BME280;34981;49.104;11.396;2023-05-02T08:38:44;100851.81;;;10.82;100.00
48563;BME280;34981;49.104;11.396;2023-05-02T08:41:13;100862.59;;;10.82;100.00
48563;BME280;34981;49.104;11.396;2023-05-02T08:43:40;100872.84;;;10.96;100.00
48563;BME280;34981;49.104;11.396;2023-05-02T08:46:08;100853.16;;;10.96;100.00
48563;BME280;34981;49.104;11.396;2023-05-02T08:48:36;100851.47;;;10.95;100.00
48563;BME280;34981;49.104;11.396;2023-05-02T08:51:05;100859.78;;;11.01;100.00
48563;BME280;34981;49.104;11.396;2023-05-02T08:53:34;100847.16;;;11.02;100.00
48563;BME280;34981;49.104;11.396;2023-05-02T08:56:01;100844.38;;;10.93;100.00
48563;BME280;34981;49.104;11.396;2023-05-02T08:58:28;100854.25;;;11.03;100.00
48563;BME280;34981;49.104;11.396;2023-05-02T09:01:02;100843.06;;;10.98;100.00
48563;BME280;34981;49.104;11.396;2023-05-02T09:03:31;100817.22;;;10.87;100.00
48563;BME280;34981;49.104;11.396;2023-05-02T09:06:02;100824.97;;;10.90;100.00
48563;BME280;34981;49.104;11.396;2023-05-02T09:08:30;100837.25;;;11.02;100.00
48563;BME280;34981;49.104;11.396;2023-05-02T09:10:57;100839.53;;;11.15;100.00
48563;BME280;34981;49.104;11.396;2023-05-02T09:16:02;100806.84;;;11.10;100.00
48563;BME280;34981;49.104;11.396;2023-05-02T09:18:30;100823.75;;;11.20;100.00
48563;BME280;34981;49.104;11.396;2023-05-02T09:20:58;100838.00;;;11.30;100.00
48563;BME280;34981;49.104;11.396;2023-05-02T09:23:39;100839.94;;;11.38;100.00
48563;BME280;34981;49.104;11.396;2023-05-02T09:26:10;100792.56;;;11.35;100.00
48563;BME280;34981;49.104;11.396;2023-05-02T09:28:38;100798.41;;;11.48;100.00
48563;BME280;34981;49.104;11.396;2023-05-02T09:31:07;100804.25;;;11.61;100.00
48563;BME280;34981;49.104;11.396;2023-05-02T09:33:36;100791.75;;;11.60;100.00
48563;BME280;34981;49.104;11.396;2023-05-02T09:36:03;100783.13;;;11.75;100.00
48563;BME280;34981;49.104;11.396;2023-05-02T09:38:30;100794.31;;;11.88;100.00
48563;BME280;34981;49.104;11.396;2023-05-02T09:40:58;100796.78;;;12.07;100.00
48563;BME280;34981;49.104;11.396;2023-05-02T09:43:25;100787.88;;;12.15;100.00
48563;BME280;34981;49.104;11.396;2023-05-02T09:45:56;100806.38;;;12.43;100.00
48563;BME280;34981;49.104;11.396;2023-05-02T09:48:23;100772.00;;;12.54;100.00
48563;BME280;34981;49.104;11.396;2023-05-02T09:50:51;100763.25;;;12.60;100.00
48563;BME280;34981;49.104;11.396;2023-05-02T09:53:18;100784.56;;;12.87;100.00
48563;BME280;34981;49.104;11.396;2023-05-02T09:55:45;100763.94;;;12.86;100.00
48563;BME280;34981;49.104;11.396;2023-05-02T09:58:19;100766.00;;;13.08;100.00
48563;BME280;34981;49.104;11.396;2023-05-02T10:00:47;100735.63;;;13.31;100.00
48563;BME280;34981;49.104;11.396;2023-05-02T10:03:15;100706.22;;;13.44;100.00
48563;BME280;34981;49.104;11.396;2023-05-02T10:05:44;100661.59;;;13.48;100.00
48563;BME280;34981;49.104;11.396;2023-05-02T10:08:12;100624.03;;;13.61;100.00
48563;BME280;34981;49.104;11.396;2023-05-02T10:10:40;100576.34;;;13.68;100.00
48563;BME280;34981;49.104;11.396;2023-05-02T10:13:11;100590.50;;;14.09;100.00
48563;BME280;34981;49.104;11.396;2023-05-02T10:15:43;100537.56;;;14.07;100.00
48563;BME280;34981;49.104;11.396;2023-05-02T10:18:11;100503.66;;;14.33;100.00
48563;BME280;34981;49.104;11.396;2023-05-02T10:20:42;100433.94;;;14.35;100.00
48563;BME280;34981;49.104;11.396;2023-05-02T10:23:10;100385.91;;;14.52;100.00
48563;BME280;34981;49.104;11.396;2023-05-02T10:25:38;100336.59;;;14.57;100.00
48563;BME280;34981;49.104;11.396;2023-05-02T10:28:05;100362.59;;;15.02;100.00
48563;BME280;34981;49.104;11.396;2023-05-02T10:30:32;100274.50;;;15.12;100.00
48563;BME280;34981;49.104;11.396;2023-05-02T10:33:01;100209.97;;;15.23;100.00
48563;BME280;34981;49.104;11.396;2023-05-02T10:35:29;100120.44;;;15.16;100.00
48563;BME280;34981;49.104;11.396;2023-05-02T10:37:58;100065.28;;;15.30;100.00
48563;BME280;34981;49.104;11.396;2023-05-02T10:40:26;99935.16;;;15.30;100.00
48563;BME280;34981;49.104;11.396;2023-05-02T10:42:53;99796.88;;;15.30;100.00
48563;BME280;34981;49.104;11.396;2023-05-02T10:45:33;99654.25;;;15.36;100.00
48563;BME280;34981;49.104;11.396;2023-05-02T10:58:35;99220.94;;;15.33;100.00
48563;BME280;34981;49.104;11.396;2023-05-02T11:01:49;99179.28;;;15.27;100.00
48563;BME280;34981;49.104;11.396;2023-05-02T11:03:52;99083.06;;;15.36;100.00
48563;BME280;34981;49.104;11.396;2023-05-02T11:06:19;99002.13;;;15.22;100.00
48563;BME280;34981;49.104;11.396;2023-05-02T11:08:46;99005.69;;;15.40;100.00
48563;BME280;34981;49.104;11.396;2023-05-02T11:13:59;98837.13;;;15.43;100.00
48563;BME280;34981;49.104;11.396;2023-05-02T11:16:26;98791.97;;;15.55;100.00
48563;BME280;34981;49.104;11.396;2023-05-02T11:18:56;98745.50;;;15.64;100.00
48563;BME280;34981;49.104;11.396;2023-05-02T11:21:25;98680.53;;;15.57;100.00
48563;BME280;34981;49.104;11.396;2023-05-02T11:26:40;98537.28;;;15.42;100.00
48563;BME280;34981;49.104;11.396;2023-05-02T11:29:07;98507.47;;;15.66;100.00
48563;BME280;34981;49.104;11.396;2023-05-02T11:34:02;98348.47;;;15.60;100.00
48563;BME280;34981;49.104;11.396;2023-05-02T11:36:29;98349.38;;;15.65;100.00
48563;BME280;34981;49.104;11.396;2023-05-02T11:39:02;98321.69;;;15.80;100.00
48563;BME280;34981;49.104;11.396;2023-05-02T11:41:41;98167.22;;;15.68;100.00
48563;BME280;34981;49.104;11.396;2023-05-02T11:44:08;98078.97;;;15.77;100.00
48563;BME280;34981;49.104;11.396;2023-05-02T11:46:35;98049.44;;;15.81;100.00
48563;BME280;34981;49.104;11.396;2023-05-02T11:49:03;98031.69;;;15.95;100.00
48563;BME280;34981;49.104;11.396;2023-05-02T11:51:34;97985.09;;;15.98;100.00
48563;BME280;34981;49.104;11.396;2023-05-02T11:54:01;97926.84;;;16.06;100.00
48563;BME280;34981;49.104;11.396;2023-05-02T11:56:29;97891.84;;;16.04;100.00
48563;BME280;34981;49.104;11.396;2023-05-02T11:58:56;97881.63;;;16.16;100.00
48563;BME280;34981;49.104;11.396;2023-05-02T12:01:24;97811.84;;;16.07;100.00
48563;BME280;34981;49.104;11.396;2023-05-02T12:04:00;97780.22;;;16.27;100.00
48563;BME280;34981;49.104;11.396;2023-05-02T12:06:27;97771.56;;;16.30;100.00
48563;BME280;34981;49.104;11.396;2023-05-02T12:09:04;97691.66;;;16.06;100.00
48563;BME280;34981;49.104;11.396;2023-05-02T12:11:31;97695.56;;;16.30;100.00
48563;BME280;34981;49.104;11.396;2023-05-02T12:13:59;97704.22;;;16.74;100.00
48563;BME280;34981;49.104;11.396;2023-05-02T12:16:26;97662.69;;;16.79;100.00
48563;BME280;34981;49.104;11.396;2023-05-02T12:18:53;97579.31;;;16.85;100.00
48563;BME280;34981;49.104;11.396;2023-05-02T12:21:22;97535.03;;;16.79;100.00
48563;BME280;34981;49.104;11.396;2023-05-02T12:23:49;97537.75;;;16.89;100.00
48563;BME280;34981;49.104;11.396;2023-05-02T12:26:17;97455.16;;;16.95;100.00
48563;BME280;34981;49.104;11.396;2023-05-02T12:28:51;97406.22;;;17.16;100.00
48563;BME280;34981;49.104;11.396;2023-05-02T12:31:20;97362.78;;;17.05;100.00
48563;BME280;34981;49.104;11.396;2023-05-02T12:33:48;97276.66;;;17.06;100.00
48563;BME280;34981;49.104;11.396;2023-05-02T12:36:17;97120.50;;;16.39;100.00
48563;BME280;34981;49.104;11.396;2023-05-02T12:38:48;97210.13;;;16.98;100.00
48563;BME280;34981;49.104;11.396;2023-05-02T12:41:19;97162.50;;;17.16;100.00
48563;BME280;34981;49.104;11.396;2023-05-02T12:43:55;97177.34;;;17.29;100.00
48563;BME280;34981;49.104;11.396;2023-05-02T12:46:24;97138.75;;;17.27;100.00
48563;BME280;34981;49.104;11.396;2023-05-02T12:51:29;96982.81;;;17.75;100.00
48563;BME280;34981;49.104;11.396;2023-05-02T12:53:57;96942.22;;;18.03;100.00
48563;BME280;34981;49.104;11.396;2023-05-02T12:56:24;96844.50;;;17.87;100.00
48563;BME280;34981;49.104;11.396;2023-05-02T12:58:57;96738.03;;;17.75;100.00
48563;BME280;34981;49.104;11.396;2023-05-02T13:01:27;96682.13;;;17.32;100.00
48563;BME280;34981;49.104;11.396;2023-05-02T13:03:54;96651.38;;;17.36;100.00
48563;BME280;34981;49.104;11.396;2023-05-02T13:06:21;96572.84;;;17.35;100.00
48563;BME280;34981;49.104;11.396;2023-05-02T13:08:48;96526.53;;;17.40;100.00
48563;BME280;34981;49.104;11.396;2023-05-02T13:11:16;96370.19;;;16.88;100.00
48563;BME280;34981;49.104;11.396;2023-05-02T13:13:43;96349.06;;;16.85;100.00
48563;BME280;34981;49.104;11.396;2023-05-02T13:16:10;96364.06;;;17.09;100.00
48563;BME280;34981;49.104;11.396;2023-05-02T13:18:38;96345.88;;;17.24;100.00
48563;BME280;34981;49.104;11.396;2023-05-02T13:21:05;96310.03;;;17.35;100.00
48563;BME280;34981;49.104;11.396;2023-05-02T13:23:32;96249.28;;;17.31;100.00
48563;BME280;34981;49.104;11.396;2023-05-02T13:25:59;96253.84;;;17.08;100.00
48563;BME280;34981;49.104;11.396;2023-05-02T13:28:26;96299.34;;;17.39;100.00
48563;BME280;34981;49.104;11.396;2023-05-02T13:30:54;96302.19;;;17.34;100.00
48563;BME280;34981;49.104;11.396;2023-05-02T13:33:22;96281.47;;;17.10;100.00